sensor_id;sensor_type;location;lat;lon;timestamp;pressure;altitude;pressure_sealevel;temperature;humidity
62725;BME280;49026;52.600;4.694;2022-08-11T00:02:25;102422.19;;;18.09;61.09
62725;BME280;49026;52.600;4.694;2022-08-11T00:04:51;102423.09;;;18.08;60.52
62725;BME280;49026;52.600;4.694;2022-08-11T00:07:18;102418.94;;;18.03;60.05
62725;BME280;49026;52.600;4.694;2022-08-11T00:09:46;102424.47;;;17.98;60.23
62725;BME280;49026;52.600;4.694;2022-08-11T00:12:17;102426.34;;;17.96;60.63
62725;BME280;49026;52.600;4.694;2022-08-11T00:14:43;102432.66;;;17.93;61.01
62725;BME280;49026;52.600;4.694;2022-08-11T00:17:13;102419.41;;;17.92;60.67
62725;BME280;49026;52.600;4.694;2022-08-11T00:19:47;102424.03;;;17.88;62.60
62725;BME280;49026;52.600;4.694;2022-08-11T00:22:20;102432.91;;;17.87;61.03
62725;BME280;49026;52.600;4.694;2022-08-11T00:24:48;102428.59;;;17.85;61.09
62725;BME280;49026;52.600;4.694;2022-08-11T00:27:14;102425.16;;;17.83;63.57
62725;BME280;49026;52.600;4.694;2022-08-11T00:29:53;102430.28;;;17.86;61.21
62725;BME280;49026;52.600;4.694;2022-08-11T00:32:18;102422.50;;;17.83;60.93
62725;BME280;49026;52.600;4.694;2022-08-11T00:34:49;102434.09;;;17.80;61.25
62725;BME280;49026;52.600;4.694;2022-08-11T00:37:17;102434.25;;;17.77;61.45
62725;BME280;49026;52.600;4.694;2022-08-11T00:39:47;102434.31;;;17.75;60.91
62725;BME280;49026;52.600;4.694;2022-08-11T00:42:45;102426.63;;;17.69;61.28
62725;BME280;49026;52.600;4.694;2022-08-11T00:45:26;102432.81;;;17.70;60.84
62725;BME280;49026;52.600;4.694;2022-08-11T00:48:03;102430.34;;;17.65;60.94
62725;BME280;49026;52.600;4.694;2022-08-11T00:50:58;102425.22;;;17.60;60.99
62725;BME280;49026;52.600;4.694;2022-08-11T01:07:22;102429.94;;;17.54;61.15
62725;BME280;49026;52.600;4.694;2022-08-11T01:19:38;102414.50;;;17.43;61.36
62725;BME280;49026;52.600;4.694;2022-08-11T01:42:03;102411.31;;;17.14;61.09
62725;BME280;49026;52.600;4.694;2022-08-11T01:45:20;102415.03;;;17.10;61.67
62725;BME280;49026;52.600;4.694;2022-08-11T01:53:25;102417.19;;;17.00;61.71
62725;BME280;49026;52.600;4.694;2022-08-11T01:58:26;102407.78;;;16.93;61.32
62725;BME280;49026;52.600;4.694;2022-08-11T02:01:04;102407.84;;;16.92;61.73
62725;BME280;49026;52.600;4.694;2022-08-11T02:20:31;102403.19;;;16.75;62.09
62725;BME280;49026;52.600;4.694;2022-08-11T02:23:48;102413.03;;;16.73;62.10
62725;BME280;49026;52.600;4.694;2022-08-11T02:26:24;102405.19;;;16.70;61.98
62725;BME280;49026;52.600;4.694;2022-08-11T02:32:10;102402.66;;;16.66;62.24
62725;BME280;49026;52.600;4.694;2022-08-11T02:35:26;102403.66;;;16.64;62.23
62725;BME280;49026;52.600;4.694;2022-08-11T02:43:27;102396.84;;;16.57;62.61
62725;BME280;49026;52.600;4.694;2022-08-11T02:48:49;102379.41;;;16.51;62.42
62725;BME280;49026;52.600;4.694;2022-08-11T02:51:58;102382.22;;;16.46;62.53
62725;BME280;49026;52.600;4.694;2022-08-11T02:55:02;102384.16;;;16.43;62.83
62725;BME280;49026;52.600;4.694;2022-08-11T02:57:58;102387.72;;;16.42;62.65
62725;BME280;49026;52.600;4.694;2022-08-11T03:00:29;102387.78;;;16.40;62.47
62725;BME280;49026;52.600;4.694;2022-08-11T03:03:35;102386.91;;;16.40;62.72
62725;BME280;49026;52.600;4.694;2022-08-11T03:06:30;102382.41;;;16.42;62.63
62725;BME280;49026;52.600;4.694;2022-08-11T03:09:13;102374.44;;;16.42;62.57
62725;BME280;49026;52.600;4.694;2022-08-11T03:11:52;102373.47;;;16.44;62.70
62725;BME280;49026;52.600;4.694;2022-08-11T03:14:58;102375.28;;;16.44;62.81
62725;BME280;49026;52.600;4.694;2022-08-11T03:18:17;102371.00;;;16.40;62.79
62725;BME280;49026;52.600;4.694;2022-08-11T03:23:33;102376.44;;;16.37;63.01
62725;BME280;49026;52.600;4.694;2022-08-11T03:28:52;102370.31;;;16.35;63.27
62725;BME280;49026;52.600;4.694;2022-08-11T03:34:06;102369.41;;;16.36;63.47
62725;BME280;49026;52.600;4.694;2022-08-11T03:39:56;102374.84;;;16.33;63.64
62725;BME280;49026;52.600;4.694;2022-08-11T03:42:39;102371.38;;;16.30;63.41
62725;BME280;49026;52.600;4.694;2022-08-11T03:45:21;102378.63;;;16.25;63.51
62725;BME280;49026;52.600;4.694;2022-08-11T03:48:15;102385.16;;;16.17;63.43
62725;BME280;49026;52.600;4.694;2022-08-11T03:54:07;102391.13;;;16.00;63.71
62725;BME280;49026;52.600;4.694;2022-08-11T03:57:00;102383.53;;;15.90;63.78
62725;BME280;49026;52.600;4.694;2022-08-11T04:03:15;102378.69;;;15.78;63.49
62725;BME280;49026;52.600;4.694;2022-08-11T04:06:29;102382.47;;;15.71;63.98
62725;BME280;49026;52.600;4.694;2022-08-11T04:29:34;102381.28;;;15.31;64.24
62725;BME280;49026;52.600;4.694;2022-08-11T04:35:18;102383.13;;;15.29;64.26
62725;BME280;49026;52.600;4.694;2022-08-11T04:38:08;102385.88;;;15.26;64.43
62725;BME280;49026;52.600;4.694;2022-08-11T05:13:33;102365.75;;;17.82;63.47
62725;BME280;49026;52.600;4.694;2022-08-11T05:16:45;102369.94;;;18.26;62.85
62725;BME280;49026;52.600;4.694;2022-08-11T05:19:50;102368.88;;;18.66;62.30
62725;BME280;49026;52.600;4.694;2022-08-11T05:22:34;102377.19;;;18.95;62.06
62725;BME280;49026;52.600;4.694;2022-08-11T05:25:25;102372.31;;;19.21;61.98
62725;BME280;49026;52.600;4.694;2022-08-11T05:28:15;102381.59;;;19.47;61.72
62725;BME280;49026;52.600;4.694;2022-08-11T05:31:07;102387.31;;;19.73;61.42
62725;BME280;49026;52.600;4.694;2022-08-11T05:34:08;102388.59;;;19.99;61.36
62725;BME280;49026;52.600;4.694;2022-08-11T05:36:56;102386.88;;;20.14;61.04
62725;BME280;49026;52.600;4.694;2022-08-11T05:39:25;102372.59;;;20.31;60.95
62725;BME280;49026;52.600;4.694;2022-08-11T05:42:11;102382.50;;;20.45;60.97
62725;BME280;49026;52.600;4.694;2022-08-11T05:45:00;102391.28;;;20.47;61.85
62725;BME280;49026;52.600;4.694;2022-08-11T05:47:50;102390.13;;;20.51;61.34
62725;BME280;49026;52.600;4.694;2022-08-11T05:50:35;102380.41;;;20.50;61.49
62725;BME280;49026;52.600;4.694;2022-08-11T05:53:23;102386.69;;;20.49;61.61
62725;BME280;49026;52.600;4.694;2022-08-11T05:56:07;102381.53;;;20.46;61.74
62725;BME280;49026;52.600;4.694;2022-08-11T05:58:51;102390.75;;;20.40;62.07
62725;BME280;49026;52.600;4.694;2022-08-11T06:01:32;102385.69;;;20.35;62.37
62725;BME280;49026;52.600;4.694;2022-08-11T06:03:59;102398.44;;;20.30;62.48
62725;BME280;49026;52.600;4.694;2022-08-11T06:07:02;102393.09;;;20.30;63.14
62725;BME280;49026;52.600;4.694;2022-08-11T06:12:20;102383.09;;;20.34;63.53
62725;BME280;49026;52.600;4.694;2022-08-11T06:14:53;102389.28;;;20.34;63.84
62725;BME280;49026;52.600;4.694;2022-08-11T06:17:26;102394.44;;;20.38;63.96
62725;BME280;49026;52.600;4.694;2022-08-11T06:19:59;102391.53;;;20.42;64.03
62725;BME280;49026;52.600;4.694;2022-08-11T06:22:28;102383.84;;;20.52;64.09
62725;BME280;49026;52.600;4.694;2022-08-11T06:24:57;102381.50;;;20.62;64.55
62725;BME280;49026;52.600;4.694;2022-08-11T06:27:23;102388.91;;;20.72;64.18
62725;BME280;49026;52.600;4.694;2022-08-11T06:29:55;102385.03;;;20.78;66.33
62725;BME280;49026;52.600;4.694;2022-08-11T06:32:46;102386.47;;;20.84;64.51
62725;BME280;49026;52.600;4.694;2022-08-11T06:35:25;102379.91;;;20.89;63.99
62725;BME280;49026;52.600;4.694;2022-08-11T06:38:07;102368.50;;;21.02;64.49
62725;BME280;49026;52.600;4.694;2022-08-11T06:40:50;102378.25;;;21.17;64.23
62725;BME280;49026;52.600;4.694;2022-08-11T06:43:49;102374.63;;;21.33;64.31
62725;BME280;49026;52.600;4.694;2022-08-11T06:46:24;102374.84;;;21.44;64.15
62725;BME280;49026;52.600;4.694;2022-08-11T06:48:53;102374.38;;;21.52;64.35
62725;BME280;49026;52.600;4.694;2022-08-11T06:51:19;102378.88;;;21.65;64.40
62725;BME280;49026;52.600;4.694;2022-08-11T06:53:48;102376.25;;;21.78;64.38
62725;BME280;49026;52.600;4.694;2022-08-11T06:56:23;102379.88;;;21.92;64.37
62725;BME280;49026;52.600;4.694;2022-08-11T06:59:09;102376.63;;;22.01;64.16
62725;BME280;49026;52.600;4.694;2022-08-11T07:04:43;102380.13;;;22.30;64.44
62725;BME280;49026;52.600;4.694;2022-08-11T07:13:06;102378.16;;;23.00;64.17
62725;BME280;49026;52.600;4.694;2022-08-11T07:15:53;102376.06;;;23.18;64.39
62725;BME280;49026;52.600;4.694;2022-08-11T07:18:28;102375.09;;;23.31;63.48
62725;BME280;49026;52.600;4.694;2022-08-11T07:21:28;102377.13;;;23.41;63.00
62725;BME280;49026;52.600;4.694;2022-08-11T07:24:16;102375.72;;;23.48;62.83
62725;BME280;49026;52.600;4.694;2022-08-11T07:27:05;102378.63;;;23.71;63.62
62725;BME280;49026;52.600;4.694;2022-08-11T07:29:50;102376.63;;;23.98;61.55
62725;BME280;49026;52.600;4.694;2022-08-11T07:32:29;102379.97;;;24.26;64.21
62725;BME280;49026;52.600;4.694;2022-08-11T07:35:01;102371.50;;;24.44;63.57
62725;BME280;49026;52.600;4.694;2022-08-11T07:37:29;102370.81;;;24.53;63.54
62725;BME280;49026;52.600;4.694;2022-08-11T07:39:57;102366.00;;;24.58;62.37
62725;BME280;49026;52.600;4.694;2022-08-11T07:42:30;102366.25;;;24.66;61.36
62725;BME280;49026;52.600;4.694;2022-08-11T07:45:01;102368.59;;;24.71;61.19
62725;BME280;49026;52.600;4.694;2022-08-11T07:47:49;102375.09;;;24.80;60.83
62725;BME280;49026;52.600;4.694;2022-08-11T07:50:39;102369.66;;;25.04;62.22
62725;BME280;49026;52.600;4.694;2022-08-11T07:53:25;102374.09;;;25.16;60.46
62725;BME280;49026;52.600;4.694;2022-08-11T07:55:53;102376.56;;;25.30;61.54
62725;BME280;49026;52.600;4.694;2022-08-11T07:58:21;102372.06;;;25.54;62.17
62725;BME280;49026;52.600;4.694;2022-08-11T08:01:06;102367.88;;;25.61;60.56
62725;BME280;49026;52.600;4.694;2022-08-11T08:03:53;102374.63;;;25.66;60.87
62725;BME280;49026;52.600;4.694;2022-08-11T08:06:38;102377.44;;;25.76;60.33
62725;BME280;49026;52.600;4.694;2022-08-11T08:09:24;102366.41;;;26.02;61.21
62725;BME280;49026;52.600;4.694;2022-08-11T08:12:09;102369.38;;;26.31;61.37
62725;BME280;49026;52.600;4.694;2022-08-11T08:14:55;102375.97;;;26.59;60.44
62725;BME280;49026;52.600;4.694;2022-08-11T08:17:42;102372.16;;;26.73;60.68
62725;BME280;49026;52.600;4.694;2022-08-11T08:20:20;102380.16;;;26.85;59.70
62725;BME280;49026;52.600;4.694;2022-08-11T08:22:53;102382.47;;;26.89;59.42
62725;BME280;49026;52.600;4.694;2022-08-11T08:25:24;102383.19;;;26.91;57.60
62725;BME280;49026;52.600;4.694;2022-08-11T08:27:51;102374.31;;;27.01;57.45
62725;BME280;49026;52.600;4.694;2022-08-11T08:30:21;102374.25;;;27.12;57.86
62725;BME280;49026;52.600;4.694;2022-08-11T08:33:05;102376.38;;;27.08;56.48
62725;BME280;49026;52.600;4.694;2022-08-11T08:35:33;102378.94;;;27.10;55.61
62725;BME280;49026;52.600;4.694;2022-08-11T08:38:00;102379.22;;;27.07;54.43
62725;BME280;49026;52.600;4.694;2022-08-11T08:40:26;102381.03;;;27.06;51.22
62725;BME280;49026;52.600;4.694;2022-08-11T08:42:56;102379.09;;;27.18;53.39
62725;BME280;49026;52.600;4.694;2022-08-11T08:45:25;102376.84;;;27.44;53.80
62725;BME280;49026;52.600;4.694;2022-08-11T08:47:59;102379.09;;;27.70;52.88
62725;BME280;49026;52.600;4.694;2022-08-11T08:50:29;102370.19;;;27.89;52.42
62725;BME280;49026;52.600;4.694;2022-08-11T08:53:20;102366.56;;;28.09;51.09
62725;BME280;49026;52.600;4.694;2022-08-11T08:55:49;102368.00;;;28.14;50.47
62725;BME280;49026;52.600;4.694;2022-08-11T08:58:18;102372.84;;;28.30;52.18
62725;BME280;49026;52.600;4.694;2022-08-11T09:00:45;102365.03;;;28.46;50.89
62725;BME280;49026;52.600;4.694;2022-08-11T09:03:12;102360.63;;;28.74;51.58
62725;BME280;49026;52.600;4.694;2022-08-11T09:05:38;102352.75;;;28.91;50.98
62725;BME280;49026;52.600;4.694;2022-08-11T09:08:05;102357.28;;;29.00;50.46
62725;BME280;49026;52.600;4.694;2022-08-11T09:10:33;102359.38;;;29.16;49.43
62725;BME280;49026;52.600;4.694;2022-08-11T09:12:59;102346.16;;;29.03;46.34
62725;BME280;49026;52.600;4.694;2022-08-11T09:15:26;102354.69;;;29.08;46.92
62725;BME280;49026;52.600;4.694;2022-08-11T09:17:54;102356.28;;;29.21;46.68
62725;BME280;49026;52.600;4.694;2022-08-11T09:20:32;102355.09;;;29.23;46.32
62725;BME280;49026;52.600;4.694;2022-08-11T09:23:05;102351.50;;;29.42;46.74
62725;BME280;49026;52.600;4.694;2022-08-11T09:25:55;102347.81;;;29.61;45.74
62725;BME280;49026;52.600;4.694;2022-08-11T09:28:44;102354.84;;;29.82;45.28
62725;BME280;49026;52.600;4.694;2022-08-11T09:31:12;102360.00;;;30.03;44.63
62725;BME280;49026;52.600;4.694;2022-08-11T09:33:39;102352.25;;;30.08;45.68
62725;BME280;49026;52.600;4.694;2022-08-11T09:36:06;102346.53;;;30.11;45.11
62725;BME280;49026;52.600;4.694;2022-08-11T09:38:54;102342.19;;;30.18;45.17
62725;BME280;49026;52.600;4.694;2022-08-11T09:41:39;102342.75;;;30.40;37.62
62725;BME280;49026;52.600;4.694;2022-08-11T09:44:10;102346.53;;;30.47;45.24
62725;BME280;49026;52.600;4.694;2022-08-11T09:46:55;102349.00;;;30.58;42.70
62725;BME280;49026;52.600;4.694;2022-08-11T09:49:25;102347.34;;;30.65;41.54
62725;BME280;49026;52.600;4.694;2022-08-11T09:51:51;102329.94;;;30.68;42.78
62725;BME280;49026;52.600;4.694;2022-08-11T09:54:18;102333.75;;;30.57;40.27
62725;BME280;49026;52.600;4.694;2022-08-11T09:56:44;102336.50;;;30.65;42.44
62725;BME280;49026;52.600;4.694;2022-08-11T09:59:29;102335.41;;;30.94;42.10
62725;BME280;49026;52.600;4.694;2022-08-11T10:01:59;102334.41;;;31.03;39.12
62725;BME280;49026;52.600;4.694;2022-08-11T10:04:26;102331.09;;;30.92;25.36
62725;BME280;49026;52.600;4.694;2022-08-11T10:06:59;102331.66;;;30.95;40.98
62725;BME280;49026;52.600;4.694;2022-08-11T10:12:26;102328.94;;;30.95;40.35
62725;BME280;49026;52.600;4.694;2022-08-11T10:14:57;102327.50;;;30.83;39.28
62725;BME280;49026;52.600;4.694;2022-08-11T10:17:47;102328.16;;;31.03;39.42
62725;BME280;49026;52.600;4.694;2022-08-11T10:20:35;102325.81;;;31.08;38.59
62725;BME280;49026;52.600;4.694;2022-08-11T10:23:04;102326.09;;;31.31;37.23
62725;BME280;49026;52.600;4.694;2022-08-11T10:25:49;102313.91;;;31.44;35.86
62725;BME280;49026;52.600;4.694;2022-08-11T10:28:34;102317.03;;;31.57;38.25
62725;BME280;49026;52.600;4.694;2022-08-11T10:31:02;102314.03;;;31.68;37.74
62725;BME280;49026;52.600;4.694;2022-08-11T10:33:47;102323.50;;;31.56;37.55
62725;BME280;49026;52.600;4.694;2022-08-11T10:36:31;102318.84;;;31.48;36.46
62725;BME280;49026;52.600;4.694;2022-08-11T10:38:58;102320.72;;;31.48;36.71
62725;BME280;49026;52.600;4.694;2022-08-11T10:41:25;102316.13;;;31.48;36.88
62725;BME280;49026;52.600;4.694;2022-08-11T10:44:13;102310.31;;;31.69;37.84
62725;BME280;49026;52.600;4.694;2022-08-11T10:46:39;102291.81;;;31.89;23.56
62725;BME280;49026;52.600;4.694;2022-08-11T10:49:24;102316.78;;;31.85;37.12
62725;BME280;49026;52.600;4.694;2022-08-11T10:51:52;102301.47;;;31.84;35.76
62725;BME280;49026;52.600;4.694;2022-08-11T10:54:38;102300.81;;;31.82;36.39
62725;BME280;49026;52.600;4.694;2022-08-11T10:57:26;102311.19;;;31.94;35.38
62725;BME280;49026;52.600;4.694;2022-08-11T11:00:13;102309.47;;;31.85;33.81
62725;BME280;49026;52.600;4.694;2022-08-11T11:02:43;102304.38;;;31.90;33.57
62725;BME280;49026;52.600;4.694;2022-08-11T11:05:21;102312.09;;;32.11;35.40
62725;BME280;49026;52.600;4.694;2022-08-11T11:08:08;102296.78;;;32.27;34.99
62725;BME280;49026;52.600;4.694;2022-08-11T11:10:54;102299.34;;;32.37;35.08
62725;BME280;49026;52.600;4.694;2022-08-11T11:13:20;102303.25;;;32.42;35.69
62725;BME280;49026;52.600;4.694;2022-08-11T11:16:06;102300.19;;;32.37;35.40
62725;BME280;49026;52.600;4.694;2022-08-11T11:18:51;102304.94;;;32.10;34.09
62725;BME280;49026;52.600;4.694;2022-08-11T11:21:21;102302.91;;;32.12;34.94
62725;BME280;49026;52.600;4.694;2022-08-11T11:23:54;102300.69;;;32.24;33.71
62725;BME280;49026;52.600;4.694;2022-08-11T11:26:30;102294.75;;;32.29;33.22
62725;BME280;49026;52.600;4.694;2022-08-11T11:29:27;102300.84;;;32.31;32.29
62725;BME280;49026;52.600;4.694;2022-08-11T11:32:23;102291.69;;;32.24;31.69
62725;BME280;49026;52.600;4.694;2022-08-11T11:35:19;102298.34;;;32.29;32.90
62725;BME280;49026;52.600;4.694;2022-08-11T11:37:51;102299.84;;;32.73;34.73
62725;BME280;49026;52.600;4.694;2022-08-11T11:40:18;102299.41;;;33.01;33.50
62725;BME280;49026;52.600;4.694;2022-08-11T11:42:46;102298.13;;;32.80;33.42
62725;BME280;49026;52.600;4.694;2022-08-11T11:45:17;102291.34;;;32.60;28.75
62725;BME280;49026;52.600;4.694;2022-08-11T11:47:43;102290.31;;;32.44;33.33
62725;BME280;49026;52.600;4.694;2022-08-11T11:50:09;102293.56;;;32.40;33.00
62725;BME280;49026;52.600;4.694;2022-08-11T11:52:39;102288.44;;;32.53;31.77
62725;BME280;49026;52.600;4.694;2022-08-11T11:55:05;102277.50;;;32.86;27.63
62725;BME280;49026;52.600;4.694;2022-08-11T11:57:31;102288.03;;;32.89;31.64
62725;BME280;49026;52.600;4.694;2022-08-11T12:00:16;102285.06;;;33.23;31.69
62725;BME280;49026;52.600;4.694;2022-08-11T12:03:05;102284.63;;;33.43;29.59
62725;BME280;49026;52.600;4.694;2022-08-11T12:05:35;102280.78;;;33.29;30.07
62725;BME280;49026;52.600;4.694;2022-08-11T12:08:01;102278.44;;;33.49;31.56
62725;BME280;49026;52.600;4.694;2022-08-11T12:10:45;102285.22;;;33.62;30.76
62725;BME280;49026;52.600;4.694;2022-08-11T12:13:12;102281.44;;;33.63;30.53
62725;BME280;49026;52.600;4.694;2022-08-11T12:15:57;102276.03;;;33.54;30.35
62725;BME280;49026;52.600;4.694;2022-08-11T12:18:27;102277.75;;;33.55;29.28
62725;BME280;49026;52.600;4.694;2022-08-11T12:20:52;102269.94;;;33.52;29.77
62725;BME280;49026;52.600;4.694;2022-08-11T12:23:18;102273.97;;;33.33;29.90
62725;BME280;49026;52.600;4.694;2022-08-11T12:26:04;102275.84;;;33.24;29.85
62725;BME280;49026;52.600;4.694;2022-08-11T12:28:48;102270.88;;;33.36;29.87
62725;BME280;49026;52.600;4.694;2022-08-11T12:31:14;102260.81;;;33.37;29.68
62725;BME280;49026;52.600;4.694;2022-08-11T12:33:40;102264.53;;;33.44;30.30
62725;BME280;49026;52.600;4.694;2022-08-11T12:36:07;102262.72;;;33.59;29.55
62725;BME280;49026;52.600;4.694;2022-08-11T12:38:37;102257.25;;;33.59;29.74
62725;BME280;49026;52.600;4.694;2022-08-11T12:41:02;102250.13;;;33.58;19.82
62725;BME280;49026;52.600;4.694;2022-08-11T12:43:47;102250.31;;;33.57;28.99
62725;BME280;49026;52.600;4.694;2022-08-11T12:46:36;102247.06;;;33.62;28.18
62725;BME280;49026;52.600;4.694;2022-08-11T12:49:17;102248.56;;;33.64;29.03
62725;BME280;49026;52.600;4.694;2022-08-11T12:52:06;102252.59;;;33.76;29.29
62725;BME280;49026;52.600;4.694;2022-08-11T12:57:16;102237.09;;;34.00;28.66
62725;BME280;49026;52.600;4.694;2022-08-11T13:00:04;102246.50;;;34.12;28.69
62725;BME280;49026;52.600;4.694;2022-08-11T13:02:51;102239.56;;;34.10;28.59
62725;BME280;49026;52.600;4.694;2022-08-11T13:05:37;102238.16;;;33.91;28.59
62725;BME280;49026;52.600;4.694;2022-08-11T13:08:06;102233.41;;;34.08;28.90
62725;BME280;49026;52.600;4.694;2022-08-11T13:10:33;102225.59;;;34.05;29.30
62725;BME280;49026;52.600;4.694;2022-08-11T13:13:17;102228.09;;;33.91;29.71
62725;BME280;49026;52.600;4.694;2022-08-11T13:15:46;102222.78;;;34.13;29.39
62725;BME280;49026;52.600;4.694;2022-08-11T13:18:18;102227.41;;;34.50;28.70
62725;BME280;49026;52.600;4.694;2022-08-11T13:20:56;102220.34;;;34.56;28.61
62725;BME280;49026;52.600;4.694;2022-08-11T13:23:25;102226.00;;;34.55;28.35
62725;BME280;49026;52.600;4.694;2022-08-11T13:25:54;102218.56;;;34.48;28.84
62725;BME280;49026;52.600;4.694;2022-08-11T13:28:21;102219.50;;;34.56;29.32
62725;BME280;49026;52.600;4.694;2022-08-11T13:30:48;102210.97;;;34.74;29.18
62725;BME280;49026;52.600;4.694;2022-08-11T13:33:34;102216.72;;;34.79;27.45
62725;BME280;49026;52.600;4.694;2022-08-11T13:36:04;102215.34;;;34.60;28.01
62725;BME280;49026;52.600;4.694;2022-08-11T13:38:30;102215.28;;;34.83;28.20
62725;BME280;49026;52.600;4.694;2022-08-11T13:40:58;102212.44;;;34.91;18.78
62725;BME280;49026;52.600;4.694;2022-08-11T13:43:24;102211.72;;;34.82;27.54
62725;BME280;49026;52.600;4.694;2022-08-11T13:45:53;102204.06;;;34.93;27.79
62725;BME280;49026;52.600;4.694;2022-08-11T13:48:40;102210.72;;;35.05;27.42
62725;BME280;49026;52.600;4.694;2022-08-11T13:51:10;102208.00;;;35.05;27.25
62725;BME280;49026;52.600;4.694;2022-08-11T13:54:18;102213.53;;;35.12;25.31
62725;BME280;49026;52.600;4.694;2022-08-11T13:56:49;102193.94;;;35.23;27.62
62725;BME280;49026;52.600;4.694;2022-08-11T13:59:17;102201.91;;;35.39;27.38
62725;BME280;49026;52.600;4.694;2022-08-11T14:01:54;102195.53;;;35.54;26.84
62725;BME280;49026;52.600;4.694;2022-08-11T14:04:29;102188.38;;;35.53;26.18
62725;BME280;49026;52.600;4.694;2022-08-11T14:06:55;102194.34;;;35.41;26.43
62725;BME280;49026;52.600;4.694;2022-08-11T14:09:25;102187.59;;;35.37;18.90
62725;BME280;49026;52.600;4.694;2022-08-11T14:11:52;102192.13;;;35.52;27.04
62725;BME280;49026;52.600;4.694;2022-08-11T14:14:39;102174.06;;;35.51;26.64
62725;BME280;49026;52.600;4.694;2022-08-11T14:17:07;102183.53;;;35.33;26.07
62725;BME280;49026;52.600;4.694;2022-08-11T14:19:35;102175.03;;;35.43;26.30
62725;BME280;49026;52.600;4.694;2022-08-11T14:22:04;102168.44;;;35.74;25.98
62725;BME280;49026;52.600;4.694;2022-08-11T14:24:40;102172.94;;;35.88;25.29
62725;BME280;49026;52.600;4.694;2022-08-11T14:27:10;102169.03;;;35.97;25.31
62725;BME280;49026;52.600;4.694;2022-08-11T14:29:40;102171.03;;;36.10;25.00
62725;BME280;49026;52.600;4.694;2022-08-11T14:32:10;102157.94;;;36.34;25.07
62725;BME280;49026;52.600;4.694;2022-08-11T14:34:40;102152.94;;;36.44;25.85
62725;BME280;49026;52.600;4.694;2022-08-11T14:37:12;102153.94;;;36.37;25.20
62725;BME280;49026;52.600;4.694;2022-08-11T14:39:46;102143.44;;;36.12;25.57
62725;BME280;49026;52.600;4.694;2022-08-11T14:42:15;102152.31;;;36.14;25.60
62725;BME280;49026;52.600;4.694;2022-08-11T14:45:05;102148.88;;;36.05;25.88
62725;BME280;49026;52.600;4.694;2022-08-11T14:47:53;102141.78;;;36.11;26.03
62725;BME280;49026;52.600;4.694;2022-08-11T14:50:23;102148.28;;;36.10;25.62
62725;BME280;49026;52.600;4.694;2022-08-11T14:55:27;102141.41;;;35.42;25.83
62725;BME280;49026;52.600;4.694;2022-08-11T14:58:16;102145.41;;;35.47;25.64
62725;BME280;49026;52.600;4.694;2022-08-11T15:00:42;102141.44;;;35.71;25.66
62725;BME280;49026;52.600;4.694;2022-08-11T15:03:11;102140.25;;;36.08;25.57
62725;BME280;49026;52.600;4.694;2022-08-11T15:05:44;102137.13;;;36.11;25.28
62725;BME280;49026;52.600;4.694;2022-08-11T15:08:15;102130.78;;;36.04;24.80
62725;BME280;49026;52.600;4.694;2022-08-11T15:10:42;102134.59;;;35.82;25.41
62725;BME280;49026;52.600;4.694;2022-08-11T15:13:08;102134.34;;;35.55;25.33
62725;BME280;49026;52.600;4.694;2022-08-11T15:15:35;102128.31;;;35.59;25.35
62725;BME280;49026;52.600;4.694;2022-08-11T15:18:20;102128.06;;;35.76;24.78
62725;BME280;49026;52.600;4.694;2022-08-11T15:20:48;102112.50;;;35.55;24.74
62725;BME280;49026;52.600;4.694;2022-08-11T15:23:33;102115.09;;;35.41;24.77
62725;BME280;49026;52.600;4.694;2022-08-11T15:26:23;102120.72;;;35.18;22.31
62725;BME280;49026;52.600;4.694;2022-08-11T15:29:10;102117.06;;;34.89;24.47
62725;BME280;49026;52.600;4.694;2022-08-11T15:31:58;102120.19;;;34.71;23.81
62725;BME280;49026;52.600;4.694;2022-08-11T15:34:46;102125.69;;;34.57;24.78
62725;BME280;49026;52.600;4.694;2022-08-11T15:37:33;102116.06;;;34.61;24.76
62725;BME280;49026;52.600;4.694;2022-08-11T15:40:15;102110.44;;;34.77;24.26
62725;BME280;49026;52.600;4.694;2022-08-11T15:43:13;102114.03;;;34.99;23.39
62725;BME280;49026;52.600;4.694;2022-08-11T15:46:02;102113.03;;;35.22;23.75
62725;BME280;49026;52.600;4.694;2022-08-11T15:51:23;102106.88;;;34.98;24.63
62725;BME280;49026;52.600;4.694;2022-08-11T15:53:53;102111.25;;;34.63;24.94
62725;BME280;49026;52.600;4.694;2022-08-11T15:56:24;102107.91;;;34.31;25.47
62725;BME280;49026;52.600;4.694;2022-08-11T15:58:52;102103.63;;;33.84;26.52
62725;BME280;49026;52.600;4.694;2022-08-11T16:01:39;102099.97;;;33.53;27.29
62725;BME280;49026;52.600;4.694;2022-08-11T16:04:27;102095.47;;;33.14;27.46
62725;BME280;49026;52.600;4.694;2022-08-11T16:09:37;102098.00;;;32.61;27.97
62725;BME280;49026;52.600;4.694;2022-08-11T16:12:10;102093.38;;;32.70;28.02
62725;BME280;49026;52.600;4.694;2022-08-11T16:14:41;102091.22;;;32.89;27.79
62725;BME280;49026;52.600;4.694;2022-08-11T16:17:30;102096.44;;;33.30;27.40
62725;BME280;49026;52.600;4.694;2022-08-11T16:19:57;102083.63;;;33.53;26.77
62725;BME280;49026;52.600;4.694;2022-08-11T16:22:27;102081.72;;;33.54;25.66
62725;BME280;49026;52.600;4.694;2022-08-11T16:25:02;102086.41;;;33.68;26.00
62725;BME280;49026;52.600;4.694;2022-08-11T16:27:32;102074.50;;;33.99;25.69
62725;BME280;49026;52.600;4.694;2022-08-11T16:30:00;102082.13;;;34.19;25.63
62725;BME280;49026;52.600;4.694;2022-08-11T16:32:26;102089.38;;;34.26;25.80
62725;BME280;49026;52.600;4.694;2022-08-11T16:35:05;102083.28;;;34.24;25.85
62725;BME280;49026;52.600;4.694;2022-08-11T16:37:53;102078.00;;;34.23;26.25
62725;BME280;49026;52.600;4.694;2022-08-11T16:40:38;102069.81;;;34.38;26.16
62725;BME280;49026;52.600;4.694;2022-08-11T16:43:08;102070.16;;;34.49;26.12
62725;BME280;49026;52.600;4.694;2022-08-11T16:45:53;102072.81;;;34.43;26.33